sensor_id;sensor_type;location;lat;lon;timestamp;pressure;altitude;pressure_sealevel;temperature
20103;BMP180;10210;52.284;9.892;2023-08-06T00:00:35;99772.00;;;22.00
20103;BMP180;10210;52.284;9.892;2023-08-06T00:03:01;99761.00;;;22.00
20103;BMP180;10210;52.284;9.892;2023-08-06T00:05:27;99762.00;;;22.00
20103;BMP180;10210;52.284;9.892;2023-08-06T00:07:52;99763.00;;;22.00
20103;BMP180;10210;52.284;9.892;2023-08-06T00:10:18;99760.00;;;22.00
20103;BMP180;10210;52.284;9.892;2023-08-06T00:12:44;99754.00;;;22.00
20103;BMP180;10210;52.284;9.892;2023-08-06T00:15:11;99751.00;;;22.00
20103;BMP180;10210;52.284;9.892;2023-08-06T00:17:37;99744.00;;;22.00
20103;BMP180;10210;52.284;9.892;2023-08-06T00:20:06;99733.00;;;22.00
20103;BMP180;10210;52.284;9.892;2023-08-06T00:22:34;99732.00;;;22.00
20103;BMP180;10210;52.284;9.892;2023-08-06T00:25:00;99728.00;;;22.10
20103;BMP180;10210;52.284;9.892;2023-08-06T00:27:26;99737.00;;;22.10
20103;BMP180;10210;52.284;9.892;2023-08-06T00:29:52;99732.00;;;22.10
20103;BMP180;10210;52.284;9.892;2023-08-06T00:32:18;99724.00;;;22.10
20103;BMP180;10210;52.284;9.892;2023-08-06T00:34:44;99724.00;;;22.20
20103;BMP180;10210;52.284;9.892;2023-08-06T00:37:09;99725.00;;;22.20
20103;BMP180;10210;52.284;9.892;2023-08-06T00:39:35;99712.00;;;22.20
20103;BMP180;10210;52.284;9.892;2023-08-06T00:42:01;99701.00;;;22.30
20103;BMP180;10210;52.284;9.892;2023-08-06T00:44:27;99700.00;;;22.30
20103;BMP180;10210;52.284;9.892;2023-08-06T00:46:55;99698.00;;;22.30
20103;BMP180;10210;52.284;9.892;2023-08-06T00:49:20;99693.00;;;22.30
20103;BMP180;10210;52.284;9.892;2023-08-06T00:51:47;99691.00;;;22.30
20103;BMP180;10210;52.284;9.892;2023-08-06T00:54:13;99691.00;;;22.30
20103;BMP180;10210;52.284;9.892;2023-08-06T00:56:41;99687.00;;;22.30
20103;BMP180;10210;52.284;9.892;2023-08-06T00:59:08;99677.00;;;22.30
20103;BMP180;10210;52.284;9.892;2023-08-06T01:01:35;99673.00;;;22.30
20103;BMP180;10210;52.284;9.892;2023-08-06T01:04:01;99671.00;;;22.30
20103;BMP180;10210;52.284;9.892;2023-08-06T01:07:04;99673.00;;;22.10
20103;BMP180;10210;52.284;9.892;2023-08-06T01:16:00;99657.00;;;22.00
20103;BMP180;10210;52.284;9.892;2023-08-06T01:18:29;99655.00;;;21.90
20103;BMP180;10210;52.284;9.892;2023-08-06T01:20:55;99658.00;;;21.90
20103;BMP180;10210;52.284;9.892;2023-08-06T01:23:23;99659.00;;;21.90
20103;BMP180;10210;52.284;9.892;2023-08-06T01:31:50;99661.00;;;21.80
20103;BMP180;10210;52.284;9.892;2023-08-06T01:34:31;99649.00;;;21.80
20103;BMP180;10210;52.284;9.892;2023-08-06T01:37:00;99652.00;;;21.90
20103;BMP180;10210;52.284;9.892;2023-08-06T01:39:27;99654.00;;;21.90
20103;BMP180;10210;52.284;9.892;2023-08-06T01:41:52;99652.00;;;21.90
20103;BMP180;10210;52.284;9.892;2023-08-06T01:44:18;99645.00;;;21.90
20103;BMP180;10210;52.284;9.892;2023-08-06T01:46:45;99640.00;;;21.90
20103;BMP180;10210;52.284;9.892;2023-08-06T01:49:11;99631.00;;;21.90
20103;BMP180;10210;52.284;9.892;2023-08-06T01:51:37;99629.00;;;21.90
20103;BMP180;10210;52.284;9.892;2023-08-06T01:54:02;99630.00;;;21.90
20103;BMP180;10210;52.284;9.892;2023-08-06T01:56:28;99619.00;;;21.80
20103;BMP180;10210;52.284;9.892;2023-08-06T01:58:54;99620.00;;;21.80
20103;BMP180;10210;52.284;9.892;2023-08-06T02:01:20;99620.00;;;21.80
20103;BMP180;10210;52.284;9.892;2023-08-06T02:03:45;99616.00;;;21.80
20103;BMP180;10210;52.284;9.892;2023-08-06T02:06:12;99614.00;;;21.80
20103;BMP180;10210;52.284;9.892;2023-08-06T02:08:37;99617.00;;;21.80
20103;BMP180;10210;52.284;9.892;2023-08-06T02:11:05;99618.00;;;21.80
20103;BMP180;10210;52.284;9.892;2023-08-06T02:13:31;99613.00;;;21.80
20103;BMP180;10210;52.284;9.892;2023-08-06T02:15:57;99609.00;;;21.80
20103;BMP180;10210;52.284;9.892;2023-08-06T02:18:24;99613.00;;;21.70
20103;BMP180;10210;52.284;9.892;2023-08-06T02:21:00;99615.00;;;21.70
20103;BMP180;10210;52.284;9.892;2023-08-06T02:23:26;99614.00;;;21.70
20103;BMP180;10210;52.284;9.892;2023-08-06T02:26:04;99616.00;;;21.70
20103;BMP180;10210;52.284;9.892;2023-08-06T02:28:33;99626.00;;;21.70
20103;BMP180;10210;52.284;9.892;2023-08-06T02:30:58;99619.00;;;21.70
20103;BMP180;10210;52.284;9.892;2023-08-06T02:33:24;99620.00;;;21.70
20103;BMP180;10210;52.284;9.892;2023-08-06T02:35:50;99613.00;;;21.70
20103;BMP180;10210;52.284;9.892;2023-08-06T02:38:16;99606.00;;;21.70
20103;BMP180;10210;52.284;9.892;2023-08-06T02:40:46;99608.00;;;21.70
20103;BMP180;10210;52.284;9.892;2023-08-06T02:43:12;99606.00;;;21.70
20103;BMP180;10210;52.284;9.892;2023-08-06T02:45:38;99600.00;;;21.70
20103;BMP180;10210;52.284;9.892;2023-08-06T02:48:04;99604.00;;;21.60
20103;BMP180;10210;52.284;9.892;2023-08-06T02:50:31;99590.00;;;21.50
20103;BMP180;10210;52.284;9.892;2023-08-06T02:52:58;99586.00;;;21.50
20103;BMP180;10210;52.284;9.892;2023-08-06T02:55:25;99578.00;;;21.40
20103;BMP180;10210;52.284;9.892;2023-08-06T02:57:50;99567.00;;;21.40
20103;BMP180;10210;52.284;9.892;2023-08-06T03:00:16;99570.00;;;21.40
20103;BMP180;10210;52.284;9.892;2023-08-06T03:02:42;99571.00;;;21.50
20103;BMP180;10210;52.284;9.892;2023-08-06T03:05:07;99570.00;;;21.50
20103;BMP180;10210;52.284;9.892;2023-08-06T03:07:33;99572.00;;;21.50
20103;BMP180;10210;52.284;9.892;2023-08-06T03:10:01;99561.00;;;21.50
20103;BMP180;10210;52.284;9.892;2023-08-06T03:12:27;99560.00;;;21.50
20103;BMP180;10210;52.284;9.892;2023-08-06T03:14:54;99555.00;;;21.50
20103;BMP180;10210;52.284;9.892;2023-08-06T03:17:23;99547.00;;;21.50
20103;BMP180;10210;52.284;9.892;2023-08-06T03:19:48;99539.00;;;21.50
20103;BMP180;10210;52.284;9.892;2023-08-06T03:22:14;99539.00;;;21.50
20103;BMP180;10210;52.284;9.892;2023-08-06T03:24:39;99540.00;;;21.50
20103;BMP180;10210;52.284;9.892;2023-08-06T03:27:07;99530.00;;;21.50
20103;BMP180;10210;52.284;9.892;2023-08-06T03:29:33;99540.00;;;21.50
20103;BMP180;10210;52.284;9.892;2023-08-06T03:31:59;99529.00;;;21.50
20103;BMP180;10210;52.284;9.892;2023-08-06T03:34:25;99527.00;;;21.50
20103;BMP180;10210;52.284;9.892;2023-08-06T03:36:50;99533.00;;;21.50
20103;BMP180;10210;52.284;9.892;2023-08-06T03:39:16;99531.00;;;21.50
20103;BMP180;10210;52.284;9.892;2023-08-06T03:41:43;99532.00;;;21.50
20103;BMP180;10210;52.284;9.892;2023-08-06T03:44:10;99530.00;;;21.50
20103;BMP180;10210;52.284;9.892;2023-08-06T03:46:35;99537.00;;;21.50
20103;BMP180;10210;52.284;9.892;2023-08-06T03:49:01;99529.00;;;21.50
20103;BMP180;10210;52.284;9.892;2023-08-06T03:51:27;99536.00;;;21.50
20103;BMP180;10210;52.284;9.892;2023-08-06T03:53:52;99521.00;;;21.40
20103;BMP180;10210;52.284;9.892;2023-08-06T03:56:18;99525.00;;;21.40
20103;BMP180;10210;52.284;9.892;2023-08-06T03:58:44;99521.00;;;21.40
20103;BMP180;10210;52.284;9.892;2023-08-06T04:01:11;99522.00;;;21.30
20103;BMP180;10210;52.284;9.892;2023-08-06T04:03:37;99515.00;;;21.30
20103;BMP180;10210;52.284;9.892;2023-08-06T04:06:07;99506.00;;;21.20
20103;BMP180;10210;52.284;9.892;2023-08-06T04:08:33;99505.00;;;21.20
20103;BMP180;10210;52.284;9.892;2023-08-06T04:10:59;99510.00;;;21.10
20103;BMP180;10210;52.284;9.892;2023-08-06T04:13:25;99512.00;;;21.10
20103;BMP180;10210;52.284;9.892;2023-08-06T04:15:50;99511.00;;;21.00
20103;BMP180;10210;52.284;9.892;2023-08-06T04:18:16;99503.00;;;21.00
20103;BMP180;10210;52.284;9.892;2023-08-06T04:20:45;99513.00;;;21.00
20103;BMP180;10210;52.284;9.892;2023-08-06T04:23:12;99515.00;;;20.90
20103;BMP180;10210;52.284;9.892;2023-08-06T04:25:40;99512.00;;;20.90
20103;BMP180;10210;52.284;9.892;2023-08-06T04:28:06;99512.00;;;20.90
20103;BMP180;10210;52.284;9.892;2023-08-06T04:30:31;99505.00;;;20.80
20103;BMP180;10210;52.284;9.892;2023-08-06T04:32:57;99501.00;;;20.80
20103;BMP180;10210;52.284;9.892;2023-08-06T04:35:27;99510.00;;;20.70
20103;BMP180;10210;52.284;9.892;2023-08-06T04:37:54;99506.00;;;20.70
20103;BMP180;10210;52.284;9.892;2023-08-06T04:40:19;99509.00;;;20.70
20103;BMP180;10210;52.284;9.892;2023-08-06T04:42:45;99507.00;;;20.70
20103;BMP180;10210;52.284;9.892;2023-08-06T04:45:11;99516.00;;;20.70
20103;BMP180;10210;52.284;9.892;2023-08-06T04:47:36;99513.00;;;20.70
20103;BMP180;10210;52.284;9.892;2023-08-06T04:50:04;99519.00;;;20.70
20103;BMP180;10210;52.284;9.892;2023-08-06T04:52:29;99523.00;;;20.80
20103;BMP180;10210;52.284;9.892;2023-08-06T04:54:59;99521.00;;;20.80
20103;BMP180;10210;52.284;9.892;2023-08-06T04:57:25;99522.00;;;20.80
20103;BMP180;10210;52.284;9.892;2023-08-06T04:59:51;99521.00;;;20.80
20103;BMP180;10210;52.284;9.892;2023-08-06T05:02:17;99518.00;;;20.70
20103;BMP180;10210;52.284;9.892;2023-08-06T05:04:42;99521.00;;;20.70
20103;BMP180;10210;52.284;9.892;2023-08-06T05:07:10;99512.00;;;20.70
20103;BMP180;10210;52.284;9.892;2023-08-06T05:09:36;99511.00;;;20.70
20103;BMP180;10210;52.284;9.892;2023-08-06T05:12:03;99508.00;;;20.70
20103;BMP180;10210;52.284;9.892;2023-08-06T05:14:29;99511.00;;;20.70
20103;BMP180;10210;52.284;9.892;2023-08-06T05:16:55;99517.00;;;20.70
20103;BMP180;10210;52.284;9.892;2023-08-06T05:19:21;99514.00;;;20.70
20103;BMP180;10210;52.284;9.892;2023-08-06T05:21:46;99510.00;;;20.70
20103;BMP180;10210;52.284;9.892;2023-08-06T05:24:12;99513.00;;;20.70
20103;BMP180;10210;52.284;9.892;2023-08-06T05:26:39;99525.00;;;20.80
20103;BMP180;10210;52.284;9.892;2023-08-06T05:29:04;99521.00;;;20.80
20103;BMP180;10210;52.284;9.892;2023-08-06T05:31:30;99510.00;;;20.80
20103;BMP180;10210;52.284;9.892;2023-08-06T05:33:56;99519.00;;;20.80
20103;BMP180;10210;52.284;9.892;2023-08-06T05:36:22;99517.00;;;20.80
20103;BMP180;10210;52.284;9.892;2023-08-06T05:38:48;99509.00;;;20.80
20103;BMP180;10210;52.284;9.892;2023-08-06T05:41:13;99506.00;;;20.80
20103;BMP180;10210;52.284;9.892;2023-08-06T05:43:39;99509.00;;;20.80
20103;BMP180;10210;52.284;9.892;2023-08-06T05:46:06;99514.00;;;20.80
20103;BMP180;10210;52.284;9.892;2023-08-06T05:48:31;99514.00;;;20.80
20103;BMP180;10210;52.284;9.892;2023-08-06T05:51:00;99514.00;;;20.80
20103;BMP180;10210;52.284;9.892;2023-08-06T05:53:26;99516.00;;;20.80
20103;BMP180;10210;52.284;9.892;2023-08-06T05:55:52;99519.00;;;20.80
20103;BMP180;10210;52.284;9.892;2023-08-06T05:58:19;99506.00;;;20.80
20103;BMP180;10210;52.284;9.892;2023-08-06T06:00:49;99512.00;;;20.80
20103;BMP180;10210;52.284;9.892;2023-08-06T06:03:15;99514.00;;;20.80
20103;BMP180;10210;52.284;9.892;2023-08-06T06:05:42;99509.00;;;20.80
20103;BMP180;10210;52.284;9.892;2023-08-06T06:08:07;99503.00;;;20.90
20103;BMP180;10210;52.284;9.892;2023-08-06T06:10:33;99495.00;;;20.90
20103;BMP180;10210;52.284;9.892;2023-08-06T06:12:58;99499.00;;;20.90
20103;BMP180;10210;52.284;9.892;2023-08-06T06:15:24;99504.00;;;20.90
20103;BMP180;10210;52.284;9.892;2023-08-06T06:17:50;99498.00;;;21.00
20103;BMP180;10210;52.284;9.892;2023-08-06T06:20:15;99503.00;;;21.00
20103;BMP180;10210;52.284;9.892;2023-08-06T06:22:42;99501.00;;;21.10
20103;BMP180;10210;52.284;9.892;2023-08-06T06:25:08;99503.00;;;21.10
20103;BMP180;10210;52.284;9.892;2023-08-06T06:27:36;99494.00;;;21.20
20103;BMP180;10210;52.284;9.892;2023-08-06T06:30:01;99491.00;;;21.30
20103;BMP180;10210;52.284;9.892;2023-08-06T06:32:27;99495.00;;;21.30
20103;BMP180;10210;52.284;9.892;2023-08-06T06:34:54;99496.00;;;21.40
20103;BMP180;10210;52.284;9.892;2023-08-06T06:37:19;99495.00;;;21.40
20103;BMP180;10210;52.284;9.892;2023-08-06T06:39:45;99498.00;;;21.50
20103;BMP180;10210;52.284;9.892;2023-08-06T06:42:11;99493.00;;;21.50
20103;BMP180;10210;52.284;9.892;2023-08-06T06:44:37;99488.00;;;21.60
20103;BMP180;10210;52.284;9.892;2023-08-06T06:47:02;99489.00;;;21.60
20103;BMP180;10210;52.284;9.892;2023-08-06T06:49:30;99486.00;;;21.70
20103;BMP180;10210;52.284;9.892;2023-08-06T06:51:55;99483.00;;;21.70
20103;BMP180;10210;52.284;9.892;2023-08-06T06:54:21;99483.00;;;21.70
20103;BMP180;10210;52.284;9.892;2023-08-06T06:56:47;99482.00;;;21.80
20103;BMP180;10210;52.284;9.892;2023-08-06T06:59:13;99492.00;;;21.80
20103;BMP180;10210;52.284;9.892;2023-08-06T07:01:38;99480.00;;;21.90
20103;BMP180;10210;52.284;9.892;2023-08-06T07:04:05;99487.00;;;21.90
20103;BMP180;10210;52.284;9.892;2023-08-06T07:06:31;99480.00;;;22.00
20103;BMP180;10210;52.284;9.892;2023-08-06T07:08:57;99471.00;;;22.00
20103;BMP180;10210;52.284;9.892;2023-08-06T07:11:23;99483.00;;;22.20
20103;BMP180;10210;52.284;9.892;2023-08-06T07:13:56;99472.00;;;22.50
20103;BMP180;10210;52.284;9.892;2023-08-06T07:16:22;99473.00;;;22.90
20103;BMP180;10210;52.284;9.892;2023-08-06T07:18:51;99474.00;;;23.30
20103;BMP180;10210;52.284;9.892;2023-08-06T07:21:19;99484.00;;;23.80
20103;BMP180;10210;52.284;9.892;2023-08-06T07:23:45;99489.00;;;24.40
20103;BMP180;10210;52.284;9.892;2023-08-06T07:26:11;99485.00;;;25.00
20103;BMP180;10210;52.284;9.892;2023-08-06T07:28:38;99478.00;;;25.50
20103;BMP180;10210;52.284;9.892;2023-08-06T07:31:04;99475.00;;;26.00
20103;BMP180;10210;52.284;9.892;2023-08-06T07:33:29;99483.00;;;26.50
20103;BMP180;10210;52.284;9.892;2023-08-06T07:35:55;99480.00;;;26.80
20103;BMP180;10210;52.284;9.892;2023-08-06T07:38:21;99481.00;;;26.90
20103;BMP180;10210;52.284;9.892;2023-08-06T07:40:47;99487.00;;;27.20
20103;BMP180;10210;52.284;9.892;2023-08-06T07:43:13;99481.00;;;27.40
20103;BMP180;10210;52.284;9.892;2023-08-06T07:45:39;99495.00;;;27.70
20103;BMP180;10210;52.284;9.892;2023-08-06T07:48:05;99497.00;;;27.80
20103;BMP180;10210;52.284;9.892;2023-08-06T07:50:31;99495.00;;;27.90
20103;BMP180;10210;52.284;9.892;2023-08-06T07:52:57;99494.00;;;28.00
20103;BMP180;10210;52.284;9.892;2023-08-06T07:55:23;99489.00;;;28.10
20103;BMP180;10210;52.284;9.892;2023-08-06T07:57:48;99487.00;;;28.10
20103;BMP180;10210;52.284;9.892;2023-08-06T08:00:14;99490.00;;;28.10
20103;BMP180;10210;52.284;9.892;2023-08-06T08:02:41;99487.00;;;28.20
20103;BMP180;10210;52.284;9.892;2023-08-06T08:05:07;99486.00;;;28.40
20103;BMP180;10210;52.284;9.892;2023-08-06T08:07:34;99489.00;;;28.40
20103;BMP180;10210;52.284;9.892;2023-08-06T08:09:59;99487.00;;;28.50
20103;BMP180;10210;52.284;9.892;2023-08-06T08:12:27;99485.00;;;28.50
20103;BMP180;10210;52.284;9.892;2023-08-06T08:14:53;99490.00;;;28.50
20103;BMP180;10210;52.284;9.892;2023-08-06T08:17:18;99481.00;;;28.50
20103;BMP180;10210;52.284;9.892;2023-08-06T08:19:45;99479.00;;;28.40
20103;BMP180;10210;52.284;9.892;2023-08-06T08:22:11;99483.00;;;28.30
20103;BMP180;10210;52.284;9.892;2023-08-06T08:24:38;99483.00;;;28.30
20103;BMP180;10210;52.284;9.892;2023-08-06T08:27:04;99477.00;;;28.30
20103;BMP180;10210;52.284;9.892;2023-08-06T08:29:31;99481.00;;;28.30
20103;BMP180;10210;52.284;9.892;2023-08-06T08:31:56;99479.00;;;28.30
20103;BMP180;10210;52.284;9.892;2023-08-06T08:34:22;99478.00;;;28.30
20103;BMP180;10210;52.284;9.892;2023-08-06T08:36:48;99478.00;;;28.30
20103;BMP180;10210;52.284;9.892;2023-08-06T08:39:15;99473.00;;;28.30
20103;BMP180;10210;52.284;9.892;2023-08-06T08:41:42;99475.00;;;28.40
20103;BMP180;10210;52.284;9.892;2023-08-06T08:44:16;99472.00;;;28.50
20103;BMP180;10210;52.284;9.892;2023-08-06T08:46:43;99468.00;;;28.70
20103;BMP180;10210;52.284;9.892;2023-08-06T08:49:10;99465.00;;;28.80
20103;BMP180;10210;52.284;9.892;2023-08-06T08:51:36;99468.00;;;28.80
20103;BMP180;10210;52.284;9.892;2023-08-06T08:54:08;99467.00;;;28.80
20103;BMP180;10210;52.284;9.892;2023-08-06T08:56:34;99464.00;;;28.80
20103;BMP180;10210;52.284;9.892;2023-08-06T08:59:00;99474.00;;;28.90
20103;BMP180;10210;52.284;9.892;2023-08-06T09:01:28;99470.00;;;29.10
20103;BMP180;10210;52.284;9.892;2023-08-06T09:03:55;99474.00;;;29.20
20103;BMP180;10210;52.284;9.892;2023-08-06T09:06:25;99466.00;;;29.30
20103;BMP180;10210;52.284;9.892;2023-08-06T09:09:08;99470.00;;;29.20
20103;BMP180;10210;52.284;9.892;2023-08-06T09:11:47;99469.00;;;29.00
20103;BMP180;10210;52.284;9.892;2023-08-06T09:14:15;99472.00;;;29.00
20103;BMP180;10210;52.284;9.892;2023-08-06T09:16:41;99468.00;;;28.90
20103;BMP180;10210;52.284;9.892;2023-08-06T09:19:13;99466.00;;;29.00
20103;BMP180;10210;52.284;9.892;2023-08-06T09:21:42;99469.00;;;29.00
20103;BMP180;10210;52.284;9.892;2023-08-06T09:24:12;99460.00;;;29.10
20103;BMP180;10210;52.284;9.892;2023-08-06T09:26:40;99460.00;;;29.20
20103;BMP180;10210;52.284;9.892;2023-08-06T09:29:07;99459.00;;;29.40
20103;BMP180;10210;52.284;9.892;2023-08-06T09:31:51;99455.00;;;29.50
20103;BMP180;10210;52.284;9.892;2023-08-06T09:34:22;99457.00;;;29.70
20103;BMP180;10210;52.284;9.892;2023-08-06T09:36:53;99454.00;;;29.60
20103;BMP180;10210;52.284;9.892;2023-08-06T09:39:27;99459.00;;;29.50
20103;BMP180;10210;52.284;9.892;2023-08-06T09:41:59;99453.00;;;29.30
20103;BMP180;10210;52.284;9.892;2023-08-06T09:44:27;99455.00;;;29.20
20103;BMP180;10210;52.284;9.892;2023-08-06T09:46:59;99454.00;;;29.20
20103;BMP180;10210;52.284;9.892;2023-08-06T09:49:41;99460.00;;;29.00
20103;BMP180;10210;52.284;9.892;2023-08-06T09:52:13;99456.00;;;29.00
20103;BMP180;10210;52.284;9.892;2023-08-06T09:54:39;99454.00;;;28.90
20103;BMP180;10210;52.284;9.892;2023-08-06T09:57:05;99452.00;;;29.00
20103;BMP180;10210;52.284;9.892;2023-08-06T09:59:32;99453.00;;;29.00
20103;BMP180;10210;52.284;9.892;2023-08-06T10:01:59;99459.00;;;29.00
20103;BMP180;10210;52.284;9.892;2023-08-06T10:04:25;99451.00;;;29.10
20103;BMP180;10210;52.284;9.892;2023-08-06T10:06:52;99446.00;;;29.10
20103;BMP180;10210;52.284;9.892;2023-08-06T10:09:18;99446.00;;;29.20
20103;BMP180;10210;52.284;9.892;2023-08-06T10:11:51;99450.00;;;29.20
20103;BMP180;10210;52.284;9.892;2023-08-06T10:14:25;99443.00;;;29.30
20103;BMP180;10210;52.284;9.892;2023-08-06T10:16:56;99442.00;;;29.40
20103;BMP180;10210;52.284;9.892;2023-08-06T10:19:25;99440.00;;;29.50
20103;BMP180;10210;52.284;9.892;2023-08-06T10:22:17;99429.00;;;29.60
20103;BMP180;10210;52.284;9.892;2023-08-06T10:24:57;99423.00;;;29.60
20103;BMP180;10210;52.284;9.892;2023-08-06T10:33:03;99423.00;;;29.80
20103;BMP180;10210;52.284;9.892;2023-08-06T10:35:37;99418.00;;;29.80
20103;BMP180;10210;52.284;9.892;2023-08-06T10:38:17;99411.00;;;29.80
20103;BMP180;10210;52.284;9.892;2023-08-06T10:41:02;99416.00;;;29.80
20103;BMP180;10210;52.284;9.892;2023-08-06T10:43:37;99413.00;;;29.80
20103;BMP180;10210;52.284;9.892;2023-08-06T10:46:20;99420.00;;;29.90
20103;BMP180;10210;52.284;9.892;2023-08-06T10:48:46;99412.00;;;29.90
20103;BMP180;10210;52.284;9.892;2023-08-06T10:51:14;99409.00;;;29.90
20103;BMP180;10210;52.284;9.892;2023-08-06T10:53:45;99411.00;;;29.90
20103;BMP180;10210;52.284;9.892;2023-08-06T10:56:18;99406.00;;;29.90
20103;BMP180;10210;52.284;9.892;2023-08-06T10:58:45;99394.00;;;30.00
20103;BMP180;10210;52.284;9.892;2023-08-06T11:01:11;99392.00;;;30.00
20103;BMP180;10210;52.284;9.892;2023-08-06T11:03:38;99388.00;;;30.10
20103;BMP180;10210;52.284;9.892;2023-08-06T11:06:07;99391.00;;;30.20
20103;BMP180;10210;52.284;9.892;2023-08-06T11:08:38;99400.00;;;30.20
20103;BMP180;10210;52.284;9.892;2023-08-06T11:11:12;99394.00;;;30.20
20103;BMP180;10210;52.284;9.892;2023-08-06T11:13:40;99397.00;;;30.20
20103;BMP180;10210;52.284;9.892;2023-08-06T11:16:06;99391.00;;;30.10
20103;BMP180;10210;52.284;9.892;2023-08-06T11:18:32;99376.00;;;30.00
20103;BMP180;10210;52.284;9.892;2023-08-06T11:21:00;99381.00;;;30.00
20103;BMP180;10210;52.284;9.892;2023-08-06T11:23:29;99384.00;;;30.00
20103;BMP180;10210;52.284;9.892;2023-08-06T11:25:57;99370.00;;;30.10
20103;BMP180;10210;52.284;9.892;2023-08-06T11:28:23;99373.00;;;30.10
20103;BMP180;10210;52.284;9.892;2023-08-06T11:30:50;99373.00;;;30.20
20103;BMP180;10210;52.284;9.892;2023-08-06T11:33:26;99374.00;;;30.20
20103;BMP180;10210;52.284;9.892;2023-08-06T11:35:54;99364.00;;;30.20
20103;BMP180;10210;52.284;9.892;2023-08-06T11:38:21;99366.00;;;30.20
20103;BMP180;10210;52.284;9.892;2023-08-06T11:40:50;99361.00;;;30.30
20103;BMP180;10210;52.284;9.892;2023-08-06T11:43:19;99351.00;;;30.40
20103;BMP180;10210;52.284;9.892;2023-08-06T11:45:49;99360.00;;;30.50
20103;BMP180;10210;52.284;9.892;2023-08-06T11:48:16;99354.00;;;30.60
20103;BMP180;10210;52.284;9.892;2023-08-06T11:50:43;99359.00;;;30.60
20103;BMP180;10210;52.284;9.892;2023-08-06T11:53:13;99367.00;;;30.70
20103;BMP180;10210;52.284;9.892;2023-08-06T11:55:40;99365.00;;;30.80
20103;BMP180;10210;52.284;9.892;2023-08-06T11:58:06;99359.00;;;30.90
20103;BMP180;10210;52.284;9.892;2023-08-06T12:00:33;99355.00;;;31.00
20103;BMP180;10210;52.284;9.892;2023-08-06T12:02:59;99346.00;;;31.10
20103;BMP180;10210;52.284;9.892;2023-08-06T12:05:31;99345.00;;;31.20
20103;BMP180;10210;52.284;9.892;2023-08-06T12:08:00;99343.00;;;31.30
20103;BMP180;10210;52.284;9.892;2023-08-06T12:10:29;99336.00;;;31.40
20103;BMP180;10210;52.284;9.892;2023-08-06T12:12:55;99337.00;;;31.50
20103;BMP180;10210;52.284;9.892;2023-08-06T12:15:22;99339.00;;;31.60
20103;BMP180;10210;52.284;9.892;2023-08-06T12:17:48;99337.00;;;31.60
20103;BMP180;10210;52.284;9.892;2023-08-06T12:20:14;99342.00;;;31.70
20103;BMP180;10210;52.284;9.892;2023-08-06T12:22:39;99334.00;;;31.70
20103;BMP180;10210;52.284;9.892;2023-08-06T12:25:12;99341.00;;;31.60
20103;BMP180;10210;52.284;9.892;2023-08-06T12:27:40;99339.00;;;31.60
20103;BMP180;10210;52.284;9.892;2023-08-06T12:30:08;99343.00;;;31.50
20103;BMP180;10210;52.284;9.892;2023-08-06T12:32:34;99330.00;;;31.40
20103;BMP180;10210;52.284;9.892;2023-08-06T12:35:00;99332.00;;;31.40
20103;BMP180;10210;52.284;9.892;2023-08-06T12:37:28;99331.00;;;31.30
20103;BMP180;10210;52.284;9.892;2023-08-06T12:39:54;99324.00;;;31.30
20103;BMP180;10210;52.284;9.892;2023-08-06T12:42:20;99326.00;;;31.30
20103;BMP180;10210;52.284;9.892;2023-08-06T12:44:48;99334.00;;;31.30
20103;BMP180;10210;52.284;9.892;2023-08-06T12:47:14;99332.00;;;31.30
20103;BMP180;10210;52.284;9.892;2023-08-06T12:49:39;99333.00;;;31.30
20103;BMP180;10210;52.284;9.892;2023-08-06T12:52:05;99328.00;;;31.30
20103;BMP180;10210;52.284;9.892;2023-08-06T12:54:33;99328.00;;;31.30
20103;BMP180;10210;52.284;9.892;2023-08-06T12:57:05;99332.00;;;31.30
20103;BMP180;10210;52.284;9.892;2023-08-06T12:59:31;99331.00;;;31.30
20103;BMP180;10210;52.284;9.892;2023-08-06T13:01:59;99337.00;;;31.40
20103;BMP180;10210;52.284;9.892;2023-08-06T13:04:25;99338.00;;;31.40
20103;BMP180;10210;52.284;9.892;2023-08-06T13:06:50;99342.00;;;31.50
20103;BMP180;10210;52.284;9.892;2023-08-06T13:09:16;99339.00;;;31.50
20103;BMP180;10210;52.284;9.892;2023-08-06T13:11:42;99336.00;;;31.50
20103;BMP180;10210;52.284;9.892;2023-08-06T13:14:13;99337.00;;;31.50
20103;BMP180;10210;52.284;9.892;2023-08-06T13:16:43;99345.00;;;31.50
20103;BMP180;10210;52.284;9.892;2023-08-06T13:19:11;99332.00;;;31.40
20103;BMP180;10210;52.284;9.892;2023-08-06T13:24:08;99340.00;;;31.20
20103;BMP180;10210;52.284;9.892;2023-08-06T13:26:34;99337.00;;;31.20
20103;BMP180;10210;52.284;9.892;2023-08-06T13:29:01;99332.00;;;31.10
20103;BMP180;10210;52.284;9.892;2023-08-06T13:31:28;99339.00;;;31.10
20103;BMP180;10210;52.284;9.892;2023-08-06T13:33:57;99342.00;;;31.00
20103;BMP180;10210;52.284;9.892;2023-08-06T13:36:29;99341.00;;;30.80
20103;BMP180;10210;52.284;9.892;2023-08-06T13:38:55;99333.00;;;30.70
20103;BMP180;10210;52.284;9.892;2023-08-06T13:41:22;99339.00;;;30.50
20103;BMP180;10210;52.284;9.892;2023-08-06T13:43:48;99331.00;;;30.40
20103;BMP180;10210;52.284;9.892;2023-08-06T13:46:14;99323.00;;;30.30
20103;BMP180;10210;52.284;9.892;2023-08-06T13:48:43;99318.00;;;30.20
20103;BMP180;10210;52.284;9.892;2023-08-06T13:51:11;99321.00;;;30.20
20103;BMP180;10210;52.284;9.892;2023-08-06T13:53:41;99318.00;;;30.20
20103;BMP180;10210;52.284;9.892;2023-08-06T13:56:11;99325.00;;;30.20
20103;BMP180;10210;52.284;9.892;2023-08-06T13:58:38;99326.00;;;30.20
20103;BMP180;10210;52.284;9.892;2023-08-06T14:01:04;99320.00;;;30.20
20103;BMP180;10210;52.284;9.892;2023-08-06T14:03:30;99324.00;;;30.20
20103;BMP180;10210;52.284;9.892;2023-08-06T14:05:57;99323.00;;;30.20
20103;BMP180;10210;52.284;9.892;2023-08-06T14:08:24;99323.00;;;30.10
20103;BMP180;10210;52.284;9.892;2023-08-06T14:10:53;99331.00;;;30.10
20103;BMP180;10210;52.284;9.892;2023-08-06T14:13:22;99319.00;;;30.10
20103;BMP180;10210;52.284;9.892;2023-08-06T14:15:48;99328.00;;;30.10
20103;BMP180;10210;52.284;9.892;2023-08-06T14:18:15;99320.00;;;30.20
20103;BMP180;10210;52.284;9.892;2023-08-06T14:20:42;99325.00;;;30.10
20103;BMP180;10210;52.284;9.892;2023-08-06T14:23:08;99324.00;;;30.10
20103;BMP180;10210;52.284;9.892;2023-08-06T14:25:34;99326.00;;;30.10
20103;BMP180;10210;52.284;9.892;2023-08-06T14:28:00;99328.00;;;30.10
20103;BMP180;10210;52.284;9.892;2023-08-06T14:30:26;99326.00;;;30.00